createdAt,value
2023-03-08T00:00:20.889Z,9.27
2023-03-08T00:02:48.615Z,9.10
2023-03-08T00:05:16.977Z,8.87
2023-03-08T00:07:44.905Z,8.80
2023-03-08T00:10:12.706Z,9.30
2023-03-08T00:12:40.519Z,9.47
2023-03-08T00:15:08.353Z,8.90
2023-03-08T00:17:37.725Z,9.30
2023-03-08T00:20:07.342Z,9.20
2023-03-08T00:22:38.510Z,9.07
2023-03-08T00:25:08.860Z,9.27
2023-03-08T00:27:37.930Z,9.37
2023-03-08T00:30:08.691Z,9.70
2023-03-08T00:32:36.459Z,8.10
2023-03-08T00:35:04.742Z,8.67
2023-03-08T00:37:32.626Z,7.60
2023-03-08T00:40:00.256Z,7.23
2023-03-08T00:42:27.984Z,7.40
2023-03-08T00:44:55.650Z,6.43
2023-03-08T00:47:23.277Z,6.07
2023-03-08T00:49:51.070Z,6.27
2023-03-08T00:52:18.758Z,6.60
2023-03-08T00:54:51.976Z,6.40
2023-03-08T00:57:22.683Z,6.67
2023-03-08T00:59:50.297Z,6.00
2023-03-08T01:02:18.378Z,6.50
2023-03-08T01:04:46.037Z,6.47
2023-03-08T01:07:13.715Z,6.77
2023-03-08T01:09:41.308Z,7.10
2023-03-08T01:12:09.015Z,7.83
2023-03-08T01:14:38.102Z,8.40
2023-03-08T01:17:05.778Z,8.67
2023-03-08T01:19:33.408Z,9.73
2023-03-08T01:22:01.040Z,8.30
2023-03-08T01:24:28.651Z,8.67
2023-03-08T01:26:58.809Z,8.47
2023-03-08T01:29:27.228Z,9.67
2023-03-08T01:31:57.856Z,8.90
2023-03-08T01:34:27.826Z,10.27
2023-03-08T01:36:55.455Z,9.77
2023-03-08T01:39:23.113Z,9.33
2023-03-08T01:41:50.694Z,9.00
2023-03-08T01:44:22.741Z,9.93
2023-03-08T01:46:53.276Z,9.80
2023-03-08T01:49:28.507Z,8.93
2023-03-08T01:52:08.560Z,10.63
2023-03-08T01:54:50.277Z,10.33
2023-03-08T01:57:25.553Z,11.03
2023-03-08T01:59:57.623Z,10.40
2023-03-08T02:02:31.374Z,9.60
2023-03-08T02:04:59.540Z,10.93
2023-03-08T02:07:27.187Z,9.20
2023-03-08T02:09:55.127Z,9.80
2023-03-08T02:12:23.252Z,9.23
2023-03-08T02:14:51.136Z,9.77
2023-03-08T02:17:19.193Z,9.33
2023-03-08T02:19:54.595Z,9.70
2023-03-08T02:22:22.370Z,9.37
2023-03-08T02:24:50.108Z,10.17
2023-03-08T02:27:24.548Z,10.83
2023-03-08T02:29:52.681Z,10.63
2023-03-08T02:32:20.525Z,11.93
2023-03-08T02:34:48.226Z,11.10
2023-03-08T02:37:15.871Z,10.37
2023-03-08T02:39:43.575Z,11.00
2023-03-08T02:42:11.255Z,11.17
2023-03-08T02:44:38.832Z,11.67
2023-03-08T02:47:06.754Z,10.70
2023-03-08T02:49:34.698Z,10.70
2023-03-08T02:52:02.304Z,11.63
2023-03-08T02:54:30.035Z,11.17
2023-03-08T02:56:57.729Z,10.67
2023-03-08T02:59:26.775Z,10.03
2023-03-08T03:01:54.406Z,11.90
2023-03-08T03:04:22.038Z,9.43
2023-03-08T03:06:52.287Z,10.07
2023-03-08T03:09:19.868Z,9.57
2023-03-08T03:11:47.432Z,10.20
2023-03-08T03:14:15.227Z,9.97
2023-03-08T03:16:42.879Z,10.07
2023-03-08T03:19:12.570Z,9.00
2023-03-08T03:21:40.915Z,9.13
2023-03-08T03:24:11.209Z,10.40
2023-03-08T03:26:39.069Z,9.67
2023-03-08T03:29:06.660Z,10.90
2023-03-08T03:31:34.424Z,10.90
2023-03-08T03:34:02.014Z,11.00
2023-03-08T03:36:29.694Z,9.03
2023-03-08T03:38:58.688Z,10.03
2023-03-08T03:41:26.354Z,10.13
2023-03-08T03:43:54.070Z,9.10
2023-03-08T03:46:23.165Z,10.03
2023-03-08T03:48:51.278Z,8.40
2023-03-08T03:51:21.439Z,9.00
2023-03-08T03:53:49.801Z,9.00
2023-03-08T03:56:18.601Z,8.77
2023-03-08T03:58:48.994Z,8.63
2023-03-08T04:01:24.553Z,8.47
2023-03-08T04:03:53.498Z,9.00
2023-03-08T04:06:22.308Z,9.47
2023-03-08T04:08:53.016Z,8.53
2023-03-08T04:11:24.605Z,8.70
2023-03-08T04:13:55.508Z,8.77
2023-03-08T04:16:29.582Z,7.67
2023-03-08T04:19:03.312Z,8.37
2023-03-08T04:21:31.532Z,8.53
2023-03-08T04:24:00.672Z,13.30
2023-03-08T04:26:28.520Z,15.00
2023-03-08T04:28:57.047Z,14.17
2023-03-08T04:31:27.643Z,9.50
2023-03-08T04:33:56.172Z,14.97
2023-03-08T04:36:24.474Z,11.37
2023-03-08T04:38:52.451Z,11.17
2023-03-08T04:41:20.390Z,10.17
2023-03-08T04:43:50.874Z,12.00
2023-03-08T04:46:23.780Z,16.50
2023-03-08T04:48:55.816Z,13.13
2023-03-08T04:51:26.823Z,13.40
2023-03-08T04:53:55.756Z,12.50
2023-03-08T04:56:23.423Z,13.90
2023-03-08T04:58:51.068Z,25.03
2023-03-08T05:01:22.360Z,38.40
2023-03-08T05:03:50.169Z,28.40
2023-03-08T05:06:18.758Z,26.30
2023-03-08T05:08:46.359Z,26.13
2023-03-08T05:11:19.443Z,18.73
2023-03-08T05:13:47.521Z,20.53
2023-03-08T05:16:18.621Z,20.83
2023-03-08T05:18:46.510Z,19.83
2023-03-08T05:21:17.747Z,17.47
2023-03-08T05:23:46.421Z,16.10
2023-03-08T05:26:19.317Z,16.83
2023-03-08T05:28:47.180Z,19.80
2023-03-08T05:31:17.660Z,16.73
2023-03-08T05:33:47.929Z,17.87
2023-03-08T05:36:15.618Z,19.57
2023-03-08T05:38:43.720Z,19.43
2023-03-08T05:41:17.121Z,16.17
2023-03-08T05:43:44.947Z,20.63
2023-03-08T05:46:14.902Z,18.03
2023-03-08T05:48:43.100Z,16.17
2023-03-08T05:51:14.343Z,16.80
2023-03-08T05:53:42.919Z,18.47
2023-03-08T05:56:16.293Z,18.37
2023-03-08T05:58:46.672Z,18.87
2023-03-08T06:01:18.492Z,17.20
2023-03-08T06:03:49.020Z,18.97
2023-03-08T06:06:17.174Z,19.53
2023-03-08T06:08:45.588Z,17.67
2023-03-08T06:11:15.123Z,18.27
2023-03-08T06:13:43.092Z,15.33
2023-03-08T06:16:11.189Z,16.03
2023-03-08T06:18:40.908Z,17.70
2023-03-08T06:21:15.341Z,17.83
2023-03-08T06:23:43.741Z,17.97
2023-03-08T06:26:15.028Z,18.10
2023-03-08T06:28:42.712Z,17.17
2023-03-08T06:31:18.048Z,20.13
2023-03-08T06:33:45.673Z,19.90
2023-03-08T06:36:18.816Z,18.60
2023-03-08T06:38:47.573Z,17.50
2023-03-08T06:41:20.136Z,17.07
2023-03-08T06:43:49.029Z,19.50
2023-03-08T06:46:18.519Z,18.97
2023-03-08T06:48:48.582Z,17.07
2023-03-08T06:51:17.007Z,17.00
2023-03-08T06:53:45.639Z,18.37
2023-03-08T06:56:17.458Z,19.50
2023-03-08T06:58:45.120Z,15.97
2023-03-08T07:01:13.889Z,22.50
2023-03-08T07:03:41.781Z,19.03
2023-03-08T07:06:10.275Z,18.70
2023-03-08T07:08:39.635Z,19.23
2023-03-08T07:11:12.777Z,18.80
2023-03-08T07:13:40.558Z,17.40
2023-03-08T07:16:09.582Z,18.80
2023-03-08T07:18:37.611Z,19.97
2023-03-08T07:21:05.902Z,17.07
2023-03-08T07:23:33.700Z,17.67
2023-03-08T07:26:07.920Z,18.57
2023-03-08T07:28:35.940Z,18.30
2023-03-08T07:31:03.766Z,21.53
2023-03-08T07:33:31.554Z,16.13
2023-03-08T07:36:01.750Z,17.93
2023-03-08T07:38:29.910Z,18.57
2023-03-08T07:40:59.962Z,21.07
2023-03-08T07:43:30.075Z,19.03
2023-03-08T07:46:01.415Z,17.10
2023-03-08T07:48:29.883Z,16.50
2023-03-08T07:51:09.537Z,20.70
2023-03-08T07:53:38.192Z,18.80
2023-03-08T07:56:06.513Z,16.63
2023-03-08T07:58:34.198Z,18.57
2023-03-08T08:01:01.992Z,25.57
2023-03-08T08:03:30.226Z,19.70
2023-03-08T08:06:05.706Z,20.20
2023-03-08T08:08:33.529Z,22.57
2023-03-08T08:11:01.447Z,17.27
2023-03-08T08:13:29.117Z,18.83
2023-03-08T08:16:01.492Z,21.90
2023-03-08T08:18:29.563Z,17.90
2023-03-08T08:21:04.498Z,17.77
2023-03-08T08:23:32.922Z,18.33
2023-03-08T08:26:03.913Z,19.90
2023-03-08T08:28:31.693Z,21.10
2023-03-08T08:31:02.881Z,21.90
2023-03-08T08:33:31.603Z,21.43
2023-03-08T08:36:03.070Z,21.97
2023-03-08T08:38:30.724Z,19.10
2023-03-08T08:41:06.435Z,20.97
2023-03-08T08:43:36.190Z,23.93
2023-03-08T08:46:07.758Z,20.03
2023-03-08T08:48:37.411Z,19.43
2023-03-08T08:51:11.439Z,20.60
2023-03-08T08:53:38.995Z,20.73
2023-03-08T08:56:28.361Z,21.57
2023-03-08T08:59:05.192Z,21.83
2023-03-08T09:01:35.673Z,21.93
2023-03-08T09:04:03.423Z,20.20
2023-03-08T09:06:31.509Z,19.43
2023-03-08T09:09:00.540Z,19.30
2023-03-08T09:11:28.362Z,20.93
2023-03-08T09:13:56.312Z,18.50
2023-03-08T09:16:29.476Z,18.73
2023-03-08T09:18:58.608Z,20.60
2023-03-08T09:21:28.250Z,20.17
2023-03-08T09:23:58.736Z,21.33
2023-03-08T09:26:26.345Z,19.00
2023-03-08T09:28:54.007Z,21.70
2023-03-08T09:31:23.902Z,20.60
2023-03-08T09:33:52.318Z,19.97
2023-03-08T09:36:20.907Z,21.73
2023-03-08T09:38:50.275Z,18.90
2023-03-08T09:41:25.763Z,24.33
2023-03-08T09:44:19.557Z,16.97
2023-03-08T09:47:15.893Z,18.97
2023-03-08T09:50:06.043Z,17.63
2023-03-08T09:52:50.421Z,19.33
2023-03-08T09:55:31.012Z,18.77
2023-03-08T09:58:04.952Z,19.87
2023-03-08T10:00:37.472Z,19.00
2023-03-08T10:03:24.246Z,19.37
2023-03-08T10:05:55.004Z,18.23
2023-03-08T10:09:00.436Z,20.93
2023-03-08T10:12:00.840Z,20.13
2023-03-08T10:14:36.726Z,20.93
2023-03-08T10:17:12.980Z,18.60
2023-03-08T10:20:03.567Z,21.57
2023-03-08T10:22:42.294Z,19.43
2023-03-08T10:25:26.993Z,18.83
2023-03-08T10:27:56.877Z,18.67
2023-03-08T10:30:28.783Z,17.17
2023-03-08T10:32:59.707Z,17.97
2023-03-08T10:35:50.153Z,18.30
2023-03-08T10:38:18.014Z,20.53
2023-03-08T10:40:46.173Z,17.80
2023-03-08T10:43:33.524Z,18.90
2023-03-08T10:46:10.844Z,16.43
2023-03-08T10:48:38.517Z,16.40
2023-03-08T10:51:15.823Z,16.60
2023-03-08T10:54:00.534Z,19.00
2023-03-08T10:56:44.904Z,18.30
2023-03-08T10:59:23.810Z,21.40
2023-03-08T11:01:58.780Z,22.20
2023-03-08T11:04:28.414Z,17.57
2023-03-08T11:06:56.147Z,20.93
2023-03-08T11:09:30.345Z,20.53
2023-03-08T11:11:59.917Z,16.77
2023-03-08T11:14:29.635Z,19.17
2023-03-08T11:17:18.015Z,19.07
2023-03-08T11:20:10.683Z,16.90
2023-03-08T11:22:50.192Z,15.60
2023-03-08T11:25:32.991Z,18.03
2023-03-08T11:28:33.312Z,14.73
2023-03-08T11:31:18.450Z,15.70
2023-03-08T11:34:04.838Z,16.33
2023-03-08T11:36:47.558Z,17.17
2023-03-08T11:39:32.758Z,15.90
2023-03-08T11:42:25.867Z,14.30
2023-03-08T11:45:20.586Z,13.03
2023-03-08T11:47:56.892Z,13.70
2023-03-08T11:50:36.109Z,15.60
2023-03-08T11:53:22.099Z,16.03
2023-03-08T11:56:07.639Z,12.97
2023-03-08T11:58:40.248Z,14.37
2023-03-08T12:01:15.510Z,14.83
2023-03-08T12:03:56.177Z,14.73
2023-03-08T12:06:30.425Z,12.73
2023-03-08T12:09:08.062Z,13.47
2023-03-08T12:11:43.806Z,12.80
2023-03-08T12:14:33.507Z,12.77
2023-03-08T12:17:25.293Z,11.97
2023-03-08T12:19:53.891Z,12.10
2023-03-08T12:23:02.892Z,13.37
2023-03-08T12:25:33.024Z,11.10
2023-03-08T12:28:17.388Z,12.53
2023-03-08T12:31:30.075Z,10.87
2023-03-08T12:33:59.344Z,11.00
2023-03-08T12:36:42.319Z,12.83
2023-03-08T12:39:27.379Z,14.37
2023-03-08T12:42:10.136Z,14.37
2023-03-08T12:44:39.158Z,10.10
2023-03-08T12:47:13.411Z,12.33
2023-03-08T12:49:47.135Z,10.70
2023-03-08T12:52:17.955Z,13.33
2023-03-08T12:55:09.109Z,12.97
2023-03-08T12:57:46.467Z,12.03
2023-03-08T13:00:20.241Z,14.03
2023-03-08T13:02:59.578Z,11.77
2023-03-08T13:05:28.394Z,12.03
2023-03-08T13:08:11.083Z,9.60
2023-03-08T13:10:52.535Z,11.13
2023-03-08T13:13:52.105Z,12.83
2023-03-08T13:16:35.453Z,10.50
2023-03-08T13:19:11.850Z,10.73
2023-03-08T13:22:00.382Z,10.60
2023-03-08T13:24:58.275Z,10.83
2023-03-08T13:27:51.393Z,9.70
2023-03-08T13:30:47.114Z,10.20
2023-03-08T13:33:19.266Z,10.37
2023-03-08T13:36:07.058Z,10.50
2023-03-08T13:38:37.064Z,10.43
2023-03-08T13:41:05.021Z,10.40
2023-03-08T13:43:34.635Z,12.20
2023-03-08T13:46:10.231Z,10.73
2023-03-08T13:48:40.097Z,10.40
2023-03-08T13:51:07.834Z,12.87
2023-03-08T13:53:38.040Z,11.30
2023-03-08T13:56:11.832Z,10.63
2023-03-08T13:58:45.480Z,12.57
2023-03-08T14:01:17.437Z,10.73
2023-03-08T14:03:46.909Z,12.13
2023-03-08T14:06:17.460Z,15.17
2023-03-08T14:08:47.375Z,14.50
2023-03-08T14:11:38.068Z,11.83
2023-03-08T14:14:14.291Z,12.70
2023-03-08T14:16:42.250Z,13.47
2023-03-08T14:19:24.143Z,11.87
2023-03-08T14:21:57.365Z,11.47
2023-03-08T14:24:28.270Z,14.00
2023-03-08T14:27:17.362Z,15.63
2023-03-08T14:29:45.924Z,11.93
2023-03-08T14:32:13.701Z,13.33
2023-03-08T14:34:45.570Z,10.73
2023-03-08T14:37:23.417Z,15.70
2023-03-08T14:39:54.670Z,18.17
2023-03-08T14:42:42.071Z,12.83
2023-03-08T14:45:37.016Z,12.07
2023-03-08T14:48:32.658Z,10.50
2023-03-08T14:51:04.563Z,11.80
2023-03-08T14:53:36.689Z,13.30
2023-03-08T14:56:22.476Z,11.73
2023-03-08T14:58:51.716Z,14.13
2023-03-08T15:01:30.191Z,10.53
2023-03-08T15:03:58.688Z,12.33
2023-03-08T15:06:35.020Z,13.13
2023-03-08T15:09:03.982Z,13.20
2023-03-08T15:11:32.093Z,11.97
2023-03-08T15:14:00.078Z,13.43
2023-03-08T15:16:30.629Z,13.60
2023-03-08T15:18:58.582Z,12.63
2023-03-08T15:21:29.310Z,10.87
2023-03-08T15:23:57.764Z,10.73
2023-03-08T15:26:31.470Z,12.30
2023-03-08T15:29:03.112Z,12.57
2023-03-08T15:31:31.601Z,12.20
2023-03-08T15:33:59.360Z,11.53
2023-03-08T15:36:34.648Z,14.03
2023-03-08T15:39:04.507Z,12.17
2023-03-08T15:41:32.129Z,12.10
2023-03-08T15:43:59.722Z,12.43
2023-03-08T15:46:28.306Z,67.80
2023-03-08T15:48:56.135Z,13.57
2023-03-08T15:51:29.653Z,14.13
2023-03-08T15:53:57.350Z,14.70
2023-03-08T15:56:28.014Z,12.90
2023-03-08T15:58:55.944Z,12.80
2023-03-08T16:01:26.119Z,12.37
2023-03-08T16:03:55.784Z,12.53
2023-03-08T16:06:23.923Z,11.50
2023-03-08T16:08:51.637Z,10.77
2023-03-08T16:11:22.247Z,17.43
2023-03-08T16:13:51.480Z,12.13
2023-03-08T16:16:20.532Z,10.83
2023-03-08T16:18:48.755Z,14.83
2023-03-08T16:21:16.826Z,12.97
2023-03-08T16:23:44.520Z,13.13
2023-03-08T16:26:16.714Z,16.20
2023-03-08T16:28:46.766Z,17.87
2023-03-08T16:31:19.841Z,15.13
2023-03-08T16:33:47.638Z,17.37
2023-03-08T16:36:15.360Z,17.43
2023-03-08T16:38:43.077Z,16.80
2023-03-08T16:41:13.098Z,15.33
2023-03-08T16:43:47.268Z,16.53
2023-03-08T16:46:17.824Z,15.27
2023-03-08T16:48:49.146Z,25.83
2023-03-08T16:51:19.014Z,23.17
2023-03-08T16:53:47.157Z,19.70
2023-03-08T16:56:24.762Z,18.00
2023-03-08T16:58:54.264Z,16.17
2023-03-08T17:01:22.981Z,18.67
2023-03-08T17:03:51.542Z,17.60
2023-03-08T17:06:21.411Z,18.80
2023-03-08T17:08:51.920Z,19.47
2023-03-08T17:11:23.077Z,16.33
2023-03-08T17:13:52.346Z,15.37
2023-03-08T17:16:22.411Z,16.17
2023-03-08T17:18:51.001Z,17.60
2023-03-08T17:21:19.647Z,25.07
2023-03-08T17:23:48.290Z,19.93
2023-03-08T17:26:17.434Z,21.37
2023-03-08T17:28:45.518Z,19.80
2023-03-08T17:31:18.425Z,20.17
2023-03-08T17:33:47.559Z,17.73
2023-03-08T17:36:15.818Z,20.43
2023-03-08T17:38:43.690Z,19.03
2023-03-08T17:41:14.164Z,17.83
2023-03-08T17:43:42.196Z,21.47
2023-03-08T17:46:17.900Z,19.07
2023-03-08T17:48:45.997Z,16.80
2023-03-08T17:51:20.052Z,16.97
2023-03-08T17:53:48.126Z,19.37
2023-03-08T17:56:22.169Z,18.17
2023-03-08T17:58:49.909Z,19.17
2023-03-08T18:01:20.916Z,19.83
2023-03-08T18:03:49.370Z,21.60
2023-03-08T18:06:36.233Z,20.43
2023-03-08T18:09:09.716Z,21.60
2023-03-08T18:11:37.536Z,20.57
2023-03-08T18:14:13.004Z,20.67
2023-03-08T18:16:42.523Z,21.10
2023-03-08T18:19:10.350Z,20.53
2023-03-08T18:21:41.070Z,21.50
2023-03-08T18:24:12.837Z,19.63
2023-03-08T18:26:40.529Z,20.77
2023-03-08T18:29:08.167Z,21.57
2023-03-08T18:31:37.072Z,21.07
2023-03-08T18:34:06.004Z,20.20
2023-03-08T18:36:34.783Z,21.43
2023-03-08T18:39:08.386Z,21.77
2023-03-08T18:41:35.978Z,20.43
2023-03-08T18:44:04.253Z,20.60
2023-03-08T18:46:33.697Z,22.07
2023-03-08T18:49:11.277Z,20.17
2023-03-08T18:51:42.963Z,20.53
2023-03-08T18:54:13.519Z,20.83
2023-03-08T18:56:41.098Z,23.53
2023-03-08T18:59:08.992Z,22.47
2023-03-08T19:01:36.829Z,21.17
2023-03-08T19:04:06.174Z,21.57
2023-03-08T19:06:35.062Z,26.93
2023-03-08T19:09:14.254Z,19.67
2023-03-08T19:11:42.209Z,21.33
2023-03-08T19:14:11.988Z,23.27
2023-03-08T19:16:39.781Z,22.90
2023-03-08T19:19:14.351Z,23.33
2023-03-08T19:21:48.429Z,21.77
2023-03-08T19:24:18.159Z,22.33
2023-03-08T19:26:48.927Z,22.20
2023-03-08T19:29:20.779Z,22.73
2023-03-08T19:31:51.516Z,24.50
2023-03-08T19:34:21.626Z,27.23
2023-03-08T19:36:49.866Z,30.47
2023-03-08T19:39:20.529Z,22.63
2023-03-08T19:41:50.830Z,28.43
2023-03-08T19:44:18.926Z,25.07
2023-03-08T19:46:47.366Z,26.87
2023-03-08T19:49:19.470Z,23.07
2023-03-08T19:51:48.748Z,21.63
2023-03-08T19:54:17.097Z,19.43
2023-03-08T19:56:47.822Z,19.37
2023-03-08T19:59:15.587Z,19.73
2023-03-08T20:01:44.178Z,22.17
2023-03-08T20:04:12.674Z,22.13
2023-03-08T20:06:45.130Z,21.03
2023-03-08T20:09:22.634Z,21.87
2023-03-08T20:11:57.692Z,22.87
2023-03-08T20:14:27.707Z,24.53
2023-03-08T20:16:56.259Z,28.63
2023-03-08T20:19:23.986Z,33.33
2023-03-08T20:21:51.632Z,38.73
2023-03-08T20:24:19.322Z,37.57
2023-03-08T20:26:47.192Z,38.57
2023-03-08T20:29:15.499Z,36.73
2023-03-08T20:31:44.133Z,40.07
2023-03-08T20:34:11.778Z,40.37
2023-03-08T20:36:39.480Z,35.80
2023-03-08T20:39:07.298Z,38.77
2023-03-08T20:41:37.104Z,29.20
2023-03-08T20:44:04.776Z,23.57
2023-03-08T20:46:33.685Z,28.00
2023-03-08T20:49:01.900Z,25.93
2023-03-08T20:51:29.751Z,29.43
2023-03-08T20:53:57.817Z,31.07
2023-03-08T20:56:26.418Z,29.57
2023-03-08T20:58:57.176Z,31.30
2023-03-08T21:01:28.373Z,31.47
2023-03-08T21:03:56.090Z,28.70
2023-03-08T21:06:26.927Z,31.17
2023-03-08T21:08:54.979Z,28.00
2023-03-08T21:11:22.979Z,27.80
2023-03-08T21:13:52.130Z,28.10
2023-03-08T21:16:21.965Z,27.87
2023-03-08T21:18:54.393Z,27.83
2023-03-08T21:21:27.979Z,27.37
2023-03-08T21:23:57.655Z,25.00
2023-03-08T21:26:27.398Z,26.83
2023-03-08T21:29:03.931Z,29.30
2023-03-08T21:31:33.694Z,25.73
2023-03-08T21:34:02.888Z,28.37
2023-03-08T21:36:31.232Z,30.60
2023-03-08T21:38:59.682Z,25.33
2023-03-08T21:41:31.236Z,27.10
2023-03-08T21:44:01.544Z,26.23
2023-03-08T21:46:29.248Z,26.40
2023-03-08T21:48:57.288Z,27.73
2023-03-08T21:51:25.293Z,26.97
2023-03-08T21:53:53.346Z,25.40
2023-03-08T21:56:20.991Z,25.23
2023-03-08T21:58:48.757Z,27.57
2023-03-08T22:01:27.827Z,24.27
2023-03-08T22:03:56.508Z,26.87
2023-03-08T22:06:25.576Z,30.30
2023-03-08T22:08:53.882Z,28.97
2023-03-08T22:11:22.993Z,27.90
2023-03-08T22:13:57.061Z,26.87
2023-03-08T22:16:26.163Z,25.73
2023-03-08T22:18:55.760Z,25.23
2023-03-08T22:21:23.685Z,27.20
2023-03-08T22:23:52.664Z,25.53
2023-03-08T22:26:20.945Z,26.70
2023-03-08T22:28:49.100Z,26.90
2023-03-08T22:31:19.814Z,25.90
2023-03-08T22:33:48.442Z,27.83
2023-03-08T22:36:18.088Z,27.43
2023-03-08T22:38:45.730Z,28.43
2023-03-08T22:41:16.731Z,28.93
2023-03-08T22:43:45.952Z,26.87
2023-03-08T22:46:18.050Z,26.30
2023-03-08T22:48:47.306Z,25.87
2023-03-08T22:51:16.729Z,27.20
2023-03-08T22:53:44.349Z,26.73
2023-03-08T22:56:21.342Z,29.60
2023-03-08T22:58:49.632Z,26.33
2023-03-08T23:01:20.524Z,29.17
2023-03-08T23:03:49.653Z,29.77
2023-03-08T23:06:18.794Z,29.87
2023-03-08T23:08:47.118Z,28.83
2023-03-08T23:11:15.412Z,28.53
2023-03-08T23:13:43.647Z,29.60
2023-03-08T23:16:16.570Z,27.73
2023-03-08T23:18:47.595Z,25.83
2023-03-08T23:21:16.807Z,26.57
2023-03-08T23:23:45.340Z,26.73
2023-03-08T23:26:16.012Z,26.23
2023-03-08T23:28:43.859Z,26.53
2023-03-08T23:31:19.237Z,25.33
2023-03-08T23:33:47.698Z,26.23
2023-03-08T23:36:17.886Z,48.07
2023-03-08T23:38:45.784Z,27.53
2023-03-08T23:41:15.225Z,27.07
2023-03-08T23:43:43.534Z,33.37
2023-03-08T23:46:16.828Z,41.50
2023-03-08T23:48:45.931Z,36.03
2023-03-08T23:51:16.655Z,31.90
2023-03-08T23:53:44.493Z,31.43
2023-03-08T23:56:20.565Z,33.13
2023-03-08T23:58:49.919Z,35.40
